Time;durP1;ratioP1;P1;durP2;ratioP2;P2;SDS_P1;SDS_P2;PMS_P1;PMS_P2;Temp;Humidity;BMP_temperature;BMP_pressure;BME280_temperature;BME280_humidity;BME280_pressure;Samples;Min_cycle;Max_cycle;Signal;HPM_P1;HPM_P2
2023/03/19 08:02:38;;;;;;;;;2.25;1.00;;;;;18.03;48.80;101139.75;5096367;27;45875;-80
2023/03/19 08:05:03;;;;;;;;;0.75;0.75;;;;;18.54;50.26;101132.19;5086689;27;45533;-79
2023/03/19 08:07:30;;;;;;;;;3.75;2.00;;;;;19.29;50.71;101138.66;5081813;27;45797;-79
2023/03/19 08:09:57;;;;;;;;;2.00;2.00;;;;;20.12;50.85;101141.41;5087795;27;45975;-78
2023/03/19 08:12:22;;;;;;;;;1.00;1.00;;;;;20.96;50.28;101145.75;5088783;27;45441;-78
2023/03/19 08:14:48;;;;;;;;;2.00;2.00;;;;;21.71;49.13;101153.19;5087510;27;45405;-78
2023/03/19 08:17:13;;;;;;;;;2.00;1.00;;;;;22.37;49.11;101150.53;5089017;27;45335;-78
2023/03/19 08:19:38;;;;;;;;;2.67;1.00;;;;;22.92;47.90;101143.34;5091473;27;45513;-78
2023/03/19 08:22:04;;;;;;;;;1.33;0.67;;;;;23.41;47.59;101144.78;5085737;27;54255;-77
2023/03/19 08:24:29;;;;;;;;;0.00;0.00;;;;;23.83;47.02;101145.91;5087716;27;45390;-77
2023/03/19 08:26:55;;;;;;;;;1.33;1.33;;;;;24.17;46.02;101136.09;5093966;27;45605;-77
2023/03/19 08:29:20;;;;;;;;;2.00;1.00;;;;;24.51;45.39;101150.59;5088206;27;45438;-77
2023/03/19 08:31:45;;;;;;;;;2.00;2.00;;;;;24.80;45.19;101143.91;5080443;27;47117;-77
2023/03/19 08:34:11;;;;;;;;;2.00;1.00;;;;;25.04;44.53;101143.09;5088044;27;45521;-78
2023/03/19 08:36:36;;;;;;;;;2.00;1.00;;;;;25.25;44.18;101149.88;5087319;27;45542;-78
2023/03/19 08:39:03;;;;;;;;;0.33;0.33;;;;;25.46;43.78;101143.91;5088230;27;45849;-78
2023/03/19 08:41:29;;;;;;;;;2.00;1.00;;;;;25.65;43.46;101150.03;5093571;27;45486;-79
2023/03/19 08:43:54;;;;;;;;;2.00;2.00;;;;;25.82;43.04;101156.28;5088920;27;45415;-79
2023/03/19 08:46:20;;;;;;;;;1.00;1.00;;;;;25.94;42.92;101159.47;5084307;27;45429;-79
2023/03/19 08:48:45;;;;;;;;;1.67;1.67;;;;;26.07;42.13;101164.34;5089481;27;45400;-80
2023/03/19 08:51:10;;;;;;;;;1.00;1.00;;;;;26.18;42.45;101174.00;5092024;27;45478;-80
2023/03/19 08:53:36;;;;;;;;;1.00;1.00;;;;;26.28;41.84;101169.22;5088695;27;45462;-79
2023/03/19 08:56:05;;;;;;;;;3.00;2.00;;;;;26.36;41.78;101178.41;5092648;27;45573;-84
2023/03/19 08:58:30;;;;;;;;;0.00;0.00;;;;;26.43;40.97;101179.38;5083860;27;45949;-84
2023/03/19 09:01:08;;;;;;;;;1.33;1.33;;;;;26.47;40.64;101180.72;5082868;27;46533;-84
2023/03/19 09:03:34;;;;;;;;;1.00;1.00;;;;;26.53;41.23;101185.44;5079848;27;45645;-79
2023/03/19 09:06:02;;;;;;;;;1.00;1.00;;;;;26.58;40.58;101193.09;5083631;27;46555;-85
2023/03/19 09:08:28;;;;;;;;;1.00;1.00;;;;;26.62;40.42;101194.44;5107714;27;45497;-84
2023/03/19 09:10:54;;;;;;;;;2.33;2.33;;;;;26.66;39.91;101197.63;5085817;27;46198;-82
2023/03/19 09:13:20;;;;;;;;;1.00;1.00;;;;;26.65;39.74;101191.31;5079975;27;45259;-82
2023/03/19 09:15:45;;;;;;;;;2.00;2.00;;;;;26.72;39.75;101198.81;5072223;27;45488;-80
2023/03/19 09:18:10;;;;;;;;;2.33;1.00;;;;;26.74;40.10;101202.19;5072215;28;45494;-79
2023/03/19 09:20:36;;;;;;;;;2.00;2.00;;;;;26.77;39.88;101202.66;5074464;27;47639;-79
2023/03/19 09:23:01;;;;;;;;;2.00;2.00;;;;;26.78;39.74;101207.09;5074675;27;45601;-79
2023/03/19 09:25:26;;;;;;;;;1.33;1.33;;;;;26.83;39.22;101214.72;5077446;27;45475;-79
2023/03/19 09:27:52;;;;;;;;;1.00;1.00;;;;;26.86;39.28;101213.50;5074443;28;45472;-79
2023/03/19 09:30:17;;;;;;;;;0.00;0.00;;;;;26.88;39.31;101223.19;5075307;27;45423;-78
2023/03/19 09:32:42;;;;;;;;;3.00;1.67;;;;;26.91;39.15;101224.72;5072559;27;45495;-79
2023/03/19 09:35:08;;;;;;;;;1.67;1.67;;;;;26.92;38.95;101232.72;5073750;27;45418;-78
2023/03/19 09:37:33;;;;;;;;;1.33;1.33;;;;;26.94;38.66;101230.66;5073491;28;45430;-79
2023/03/19 09:39:59;;;;;;;;;1.00;1.00;;;;;26.98;38.51;101239.34;5068108;28;48764;-79
2023/03/19 09:42:46;;;;;;;;;1.00;1.00;;;;;27.03;38.68;101250.56;5076169;27;45759;-77
2023/03/19 09:45:15;;;;;;;;;1.00;1.00;;;;;27.06;38.67;101249.34;5067738;27;45867;-77
2023/03/19 09:47:42;;;;;;;;;2.00;2.00;;;;;27.07;38.47;101249.16;5070652;27;45625;-79
2023/03/19 09:50:18;;;;;;;;;3.00;3.00;;;;;27.08;38.06;101253.59;5068401;28;46865;-79
2023/03/19 09:52:59;;;;;;;;;1.00;1.00;;;;;27.10;38.37;101248.78;5066671;27;45577;-81
2023/03/19 09:55:52;;;;;;;;;0.00;0.00;;;;;27.16;38.09;101254.53;5074693;27;45574;-81
2023/03/19 09:58:32;;;;;;;;;2.00;2.00;;;;;27.18;37.93;101253.31;5071536;28;47389;-77
2023/03/19 10:00:59;;;;;;;;;2.00;1.00;;;;;27.21;37.58;101261.16;5080689;27;45461;-79
2023/03/19 10:03:52;;;;;;;;;3.33;1.67;;;;;27.21;37.73;101255.69;5066793;27;45973;-80
2023/03/19 10:06:34;;;;;;;;;1.00;1.00;;;;;27.20;37.64;101256.75;5072292;27;45500;-81
2023/03/19 10:09:21;;;;;;;;;1.67;1.00;;;;;27.22;37.03;101264.72;5074915;27;45515;-80
2023/03/19 10:11:53;;;;;;;;;2.00;1.00;;;;;27.21;37.37;101263.00;5073639;28;46138;-80
2023/03/19 10:14:39;;;;;;;;;1.67;0.67;;;;;27.20;37.04;101269.50;5073188;27;45528;-80
2023/03/19 10:17:11;;;;;;;;;2.00;1.00;;;;;27.18;36.89;101257.94;5069767;28;45549;-77
2023/03/19 10:19:45;;;;;;;;;2.67;1.00;;;;;27.16;37.31;101260.84;5074162;27;45676;-79
2023/03/19 10:22:17;;;;;;;;;1.33;1.00;;;;;27.17;37.15;101258.94;5074617;28;46246;-81
2023/03/19 10:24:45;;;;;;;;;1.00;1.00;;;;;27.16;37.23;101258.13;5072882;28;45419;-83
2023/03/19 10:27:16;;;;;;;;;2.00;2.00;;;;;27.16;36.79;101258.13;5074927;28;45520;-83
2023/03/19 10:29:42;;;;;;;;;1.33;1.00;;;;;27.17;36.54;101268.00;5078310;27;45849;-83
2023/03/19 10:32:39;;;;;;;;;3.00;2.00;;;;;27.18;36.87;101258.78;5073551;27;47168;-83
2023/03/19 10:35:18;;;;;;;;;2.00;0.00;;;;;27.20;36.97;101261.31;5069484;28;46442;-82
2023/03/19 10:37:43;;;;;;;;;1.00;1.00;;;;;27.22;36.47;101262.84;5070719;28;45531;-82
2023/03/19 10:40:34;;;;;;;;;3.00;1.67;;;;;27.27;36.39;101273.22;5071682;28;45421;-80
2023/03/19 10:43:15;;;;;;;;;0.33;0.00;;;;;27.28;36.93;101269.44;5074136;28;46219;-82
2023/03/19 10:45:40;;;;;;;;;2.67;1.00;;;;;27.29;36.72;101267.56;5083801;27;45904;-80
